createdAt,value
2022-12-15T00:00:26.171Z,30.236000
2022-12-15T00:05:29.397Z,30.020000
2022-12-15T00:10:30.569Z,30.020000
2022-12-15T00:15:33.680Z,29.864000
2022-12-15T00:20:35.345Z,29.840000
2022-12-15T00:25:17.309Z,29.840000
2022-12-15T00:30:19.782Z,29.888000
2022-12-15T00:35:22.841Z,30.007143
2022-12-15T00:40:25.491Z,29.840000
2022-12-15T00:45:28.322Z,29.768000
2022-12-15T00:50:30.366Z,29.660000
2022-12-15T00:55:32.834Z,29.660000
2022-12-15T01:00:35.191Z,29.660000
2022-12-15T01:05:17.359Z,29.576000
2022-12-15T01:10:19.435Z,29.480000
2022-12-15T01:15:21.895Z,29.480000
2022-12-15T01:20:24.772Z,29.480000
2022-12-15T01:25:27.174Z,29.480000
2022-12-15T01:30:29.373Z,29.360000
2022-12-15T01:35:32.045Z,29.300000
2022-12-15T01:40:34.558Z,29.276000
2022-12-15T01:45:16.549Z,29.120000
2022-12-15T01:50:19.878Z,29.120000
2022-12-15T01:55:22.060Z,29.120000
2022-12-15T02:00:24.382Z,29.042857
2022-12-15T02:05:27.475Z,28.940000
2022-12-15T02:10:29.751Z,28.772000
2022-12-15T02:15:31.815Z,28.736000
2022-12-15T02:20:33.984Z,28.580000
2022-12-15T02:25:15.924Z,28.580000
2022-12-15T02:30:18.724Z,28.580000
2022-12-15T02:35:21.361Z,28.580000
2022-12-15T02:40:23.885Z,28.580000
2022-12-15T02:45:26.368Z,28.580000
2022-12-15T02:50:28.643Z,28.580000
2022-12-15T02:55:31.378Z,28.580000
2022-12-15T03:00:33.995Z,28.424000
2022-12-15T03:05:36.042Z,28.400000
2022-12-15T03:10:18.802Z,28.400000
2022-12-15T03:15:21.541Z,28.276250
2022-12-15T03:20:23.626Z,28.220000
2022-12-15T03:25:26.245Z,28.136000
2022-12-15T03:30:28.284Z,28.064000
2022-12-15T03:35:30.884Z,28.040000
2022-12-15T03:40:33.434Z,27.944000
2022-12-15T03:45:16.009Z,28.028000
2022-12-15T03:50:19.144Z,28.376000
2022-12-15T03:55:21.199Z,28.400000
2022-12-15T04:00:23.825Z,28.400000
2022-12-15T04:05:25.938Z,28.448000
2022-12-15T04:10:33.670Z,28.580000
2022-12-15T04:15:30.319Z,28.580000
2022-12-15T04:20:32.868Z,28.580000
2022-12-15T04:25:35.916Z,28.580000
2022-12-15T04:30:17.556Z,28.580000
2022-12-15T04:35:20.087Z,28.580000
2022-12-15T04:40:23.000Z,28.580000
2022-12-15T04:45:25.912Z,28.580000
2022-12-15T04:50:28.790Z,28.580000
2022-12-15T04:55:31.398Z,28.580000
2022-12-15T05:00:33.665Z,28.520000
2022-12-15T05:05:15.975Z,28.496000
2022-12-15T05:10:18.663Z,28.544000
2022-12-15T05:15:20.977Z,28.400000
2022-12-15T05:20:23.728Z,28.528571
2022-12-15T05:25:26.218Z,28.580000
2022-12-15T05:30:29.019Z,28.580000
2022-12-15T05:35:31.390Z,28.580000
2022-12-15T05:40:34.139Z,28.580000
2022-12-15T05:45:16.919Z,28.580000
2022-12-15T05:50:19.939Z,28.568000
2022-12-15T05:55:22.134Z,28.322857
2022-12-15T06:00:24.709Z,28.220000
2022-12-15T06:05:27.125Z,28.172000
2022-12-15T06:10:29.939Z,28.040000
2022-12-15T06:15:33.166Z,27.968000
2022-12-15T06:20:35.757Z,27.860000
2022-12-15T06:25:18.161Z,27.620000
2022-12-15T06:30:20.560Z,27.500000
2022-12-15T06:35:23.445Z,27.500000
2022-12-15T06:40:25.908Z,27.500000
2022-12-15T06:45:28.540Z,27.332000
2022-12-15T06:50:30.786Z,27.440000
2022-12-15T06:55:33.286Z,27.500000
2022-12-15T07:00:35.964Z,27.488000
2022-12-15T07:05:19.125Z,27.320000
2022-12-15T07:10:21.208Z,27.320000
2022-12-15T07:15:24.661Z,27.320000
2022-12-15T07:20:28.941Z,27.212000
2022-12-15T07:25:28.349Z,27.140000
2022-12-15T07:30:36.759Z,27.140000
2022-12-15T07:35:33.921Z,27.140000
2022-12-15T07:40:16.002Z,27.140000
2022-12-15T07:45:19.175Z,27.140000
2022-12-15T07:50:21.395Z,27.140000
2022-12-15T07:55:43.298Z,27.127143
2022-12-15T08:00:26.388Z,27.080000
2022-12-15T08:05:28.950Z,27.140000
2022-12-15T08:10:31.518Z,26.984000
2022-12-15T08:15:33.805Z,26.960000
2022-12-15T08:20:16.610Z,26.960000
2022-12-15T08:25:19.135Z,26.960000
2022-12-15T08:30:21.457Z,26.960000
2022-12-15T08:35:54.690Z,26.960000
2022-12-15T08:40:26.389Z,26.960000
2022-12-15T08:45:29.893Z,26.960000
2022-12-15T08:50:31.917Z,26.960000
2022-12-15T08:55:34.515Z,26.960000
2022-12-15T09:00:16.746Z,27.044000
2022-12-15T09:05:19.393Z,26.960000
2022-12-15T09:10:22.054Z,27.020000
2022-12-15T09:15:45.322Z,26.960000
2022-12-15T09:20:27.212Z,26.936000
2022-12-15T09:25:29.804Z,26.876000
2022-12-15T09:30:32.407Z,26.780000
2022-12-15T09:35:34.890Z,26.864000
2022-12-15T09:40:17.173Z,26.960000
2022-12-15T09:45:19.901Z,26.960000
2022-12-15T09:50:22.952Z,26.960000
2022-12-15T09:55:25.616Z,26.960000
2022-12-15T10:00:27.734Z,26.960000
2022-12-15T10:05:57.440Z,26.960000
2022-12-15T10:06:35.902Z,26.960000
2022-12-15T10:10:32.924Z,26.960000
2022-12-15T10:15:35.676Z,26.960000
2022-12-15T10:20:18.009Z,26.936000
2022-12-15T10:25:27.508Z,26.780000
2022-12-15T10:30:23.406Z,26.780000
2022-12-15T10:35:25.845Z,26.780000
2022-12-15T10:40:28.489Z,26.840000
2022-12-15T10:45:31.419Z,26.960000
2022-12-15T10:50:34.241Z,26.960000
2022-12-15T10:55:16.140Z,26.912000
2022-12-15T11:00:18.745Z,26.780000
2022-12-15T11:05:21.515Z,26.780000
2022-12-15T11:10:23.881Z,26.947143
2022-12-15T11:15:26.891Z,26.960000
2022-12-15T11:20:29.107Z,26.960000
2022-12-15T11:25:31.223Z,26.852000
2022-12-15T11:30:33.867Z,26.780000
2022-12-15T11:35:16.143Z,26.780000
2022-12-15T11:40:18.921Z,26.780000
2022-12-15T11:45:21.419Z,26.780000
2022-12-15T11:50:24.170Z,26.780000
2022-12-15T11:56:32.898Z,26.780000
2022-12-15T12:00:29.982Z,26.780000
2022-12-15T12:05:32.401Z,26.612000
2022-12-15T12:10:35.048Z,26.600000
2022-12-15T12:15:17.174Z,26.708000
2022-12-15T12:20:19.752Z,26.780000
2022-12-15T12:25:22.446Z,26.780000
2022-12-15T12:30:25.733Z,26.780000
2022-12-15T12:35:32.210Z,26.780000
2022-12-15T12:40:31.437Z,26.780000
2022-12-15T12:45:34.084Z,26.780000
2022-12-15T12:50:16.871Z,26.780000
2022-12-15T12:55:19.527Z,26.780000
2022-12-15T13:00:23.407Z,26.780000
2022-12-15T13:05:24.931Z,26.876000
2022-12-15T13:10:27.431Z,26.780000
2022-12-15T13:15:30.001Z,26.780000
2022-12-15T13:20:32.426Z,26.792000
2022-12-15T13:25:34.706Z,26.960000
2022-12-15T13:30:17.521Z,26.876000
2022-12-15T13:35:20.022Z,26.780000
2022-12-15T13:40:23.290Z,26.780000
2022-12-15T13:45:25.741Z,26.900000
2022-12-15T13:50:28.597Z,26.960000
2022-12-15T13:55:31.199Z,26.780000
2022-12-15T14:00:33.818Z,26.780000
2022-12-15T14:05:16.229Z,26.780000
2022-12-15T14:10:18.651Z,26.636000
2022-12-15T14:15:21.879Z,26.516000
2022-12-15T14:20:24.680Z,26.381429
2022-12-15T14:25:27.627Z,26.132000
2022-12-15T14:30:30.291Z,25.940000
2022-12-15T14:35:32.949Z,25.724000
2022-12-15T14:40:36.734Z,25.700000
2022-12-15T14:45:18.057Z,25.808000
2022-12-15T14:50:24.939Z,25.880000
2022-12-15T14:55:22.817Z,25.880000
2022-12-15T15:00:25.750Z,25.880000
2022-12-15T15:03:04.786Z,26.780000
2022-12-15T15:05:28.576Z,25.724000
2022-12-15T15:10:30.945Z,25.700000
2022-12-15T15:15:34.006Z,25.520000
2022-12-15T15:20:16.169Z,25.520000
2022-12-15T15:25:18.787Z,25.520000
2022-12-15T15:30:21.712Z,25.520000
2022-12-15T15:35:24.052Z,25.520000
2022-12-15T15:40:26.422Z,25.616000
2022-12-15T15:45:28.811Z,25.832000
2022-12-15T15:50:31.318Z,25.880000
2022-12-15T15:55:39.749Z,26.000000
2022-12-15T16:00:15.989Z,26.072000
2022-12-15T16:05:18.845Z,26.108000
2022-12-15T16:10:21.429Z,26.552000
2022-12-15T16:15:24.783Z,26.510000
2022-12-15T16:20:25.905Z,26.420000
2022-12-15T16:25:28.396Z,26.420000
2022-12-15T16:30:30.769Z,26.564000
2022-12-15T16:35:32.994Z,26.516000
2022-12-15T16:40:35.242Z,26.600000
2022-12-15T16:45:17.534Z,26.600000
2022-12-15T16:50:20.158Z,26.600000
2022-12-15T16:55:22.877Z,26.600000
2022-12-15T17:00:25.238Z,26.600000
2022-12-15T17:05:27.531Z,27.608000
2022-12-15T17:10:30.642Z,28.376000
2022-12-15T17:15:33.325Z,28.124000
2022-12-15T17:20:36.307Z,27.020000
2022-12-15T17:25:23.721Z,26.864000
2022-12-15T17:30:20.760Z,26.168000
2022-12-15T17:35:23.221Z,26.304286
2022-12-15T17:40:25.849Z,27.368000
2022-12-15T17:45:28.661Z,28.184000
2022-12-15T17:50:31.258Z,28.004000
2022-12-15T17:55:35.401Z,28.112000
2022-12-15T18:00:16.149Z,28.616000
2022-12-15T18:05:18.670Z,27.956000
2022-12-15T18:10:21.339Z,27.812000
2022-12-15T18:15:24.101Z,28.644286
2022-12-15T18:20:26.232Z,28.556000
2022-12-15T18:25:28.701Z,29.204000
2022-12-15T18:30:31.205Z,29.384000
2022-12-15T18:35:33.721Z,29.636000
2022-12-15T18:40:16.018Z,29.372000
2022-12-15T18:45:18.936Z,29.420000
2022-12-15T18:50:21.661Z,29.060000
2022-12-15T18:55:24.204Z,29.698571
2022-12-15T19:00:27.156Z,29.744000
2022-12-15T19:05:29.645Z,30.056000
2022-12-15T19:10:32.093Z,30.152000
2022-12-15T19:15:34.697Z,29.588000
2022-12-15T19:20:16.694Z,29.048000
2022-12-15T19:25:25.049Z,28.652000
2022-12-15T19:30:21.603Z,29.384000
2022-12-15T19:35:24.019Z,30.470000
2022-12-15T19:40:26.871Z,30.344000
2022-12-15T19:45:29.252Z,29.960000
2022-12-15T19:50:31.518Z,29.552000
2022-12-15T19:55:33.907Z,29.300000
2022-12-15T20:00:16.247Z,29.228000
2022-12-15T20:05:18.936Z,29.312000
2022-12-15T20:10:25.878Z,29.972000
2022-12-15T20:15:23.760Z,30.161429
2022-12-15T20:20:26.491Z,30.320000
2022-12-15T20:25:29.467Z,30.416000
2022-12-15T20:30:32.262Z,30.260000
2022-12-15T20:35:34.661Z,29.792000
2022-12-15T20:40:16.937Z,30.020000
2022-12-15T20:45:19.347Z,29.624000
2022-12-15T20:50:21.749Z,29.744000
2022-12-15T20:55:23.993Z,29.672857
2022-12-15T21:00:26.935Z,30.224000
2022-12-15T21:05:29.460Z,30.032000
2022-12-15T21:10:31.810Z,30.368000
2022-12-15T21:15:34.037Z,29.540000
2022-12-15T21:20:16.004Z,29.300000
2022-12-15T21:25:18.437Z,29.936000
2022-12-15T21:30:20.612Z,28.892000
2022-12-15T21:35:25.131Z,28.940000
2022-12-15T21:40:25.713Z,29.804000
2022-12-15T21:45:28.254Z,30.092000
2022-12-15T21:50:30.818Z,29.696000
2022-12-15T21:55:33.262Z,29.660000
2022-12-15T22:00:16.283Z,29.552000
2022-12-15T22:05:18.930Z,29.312000
2022-12-15T22:10:21.378Z,30.104000
2022-12-15T22:15:24.255Z,31.035714
2022-12-15T22:20:27.060Z,31.532000
2022-12-15T22:25:29.821Z,31.892000
2022-12-15T22:30:32.338Z,30.788000
2022-12-15T22:35:35.190Z,29.804000
2022-12-15T22:40:17.747Z,29.504000
2022-12-15T22:45:20.246Z,29.000000
2022-12-15T22:50:22.986Z,28.734286
2022-12-15T22:55:25.430Z,28.580000
2022-12-15T23:00:27.888Z,28.580000
2022-12-15T23:05:30.720Z,28.604000
2022-12-15T23:10:32.837Z,28.892000
2022-12-15T23:15:35.899Z,28.976000
2022-12-15T23:20:18.262Z,28.760000
2022-12-15T23:25:21.039Z,28.568000
2022-12-15T23:30:23.822Z,28.194286
2022-12-15T23:35:26.243Z,27.872000
2022-12-15T23:40:28.809Z,27.692000
2022-12-15T23:45:31.130Z,27.548000
2022-12-15T23:50:33.823Z,27.464000
2022-12-15T23:55:16.120Z,27.236000
